Bath, Maine
Current Conditions -  °F | °C
As of 3:53 AM on Thursday 23 Oct 2014 (Local Time) from KIWI Reporting Station
Light Rain Light Rain  
Wind Chill: 45°   Ceiling: 900
Heat Index: 49°   Visibility: 3mi
Dew Point: 46°   Wind: 9mph
Humidity: 90%   Direction: 40°NE
Pressure: 29.89"   Gusts: NA
Location:  43.91°N, 69.81°W
Report Text: KIWI 230753Z AUTO 04008KT 360V100 3SM -RA BR BKN009 OVC012 09/08 A2989 RMK AO2 RAB48 CIG 006V010 SLP122 P0000 T00940078
Loading
Personal Weather Stations






























Interactive Weather Map
Tropical Storm Tracking
New forecast layout! Learn more

10-Day Weather Forecast

Advertisements
Track Severe Weather on mobile